createdAt,value
2019-02-14T00:00:03.052Z,90.07
2019-02-14T00:05:02.624Z,90.04
2019-02-14T00:10:03.127Z,89.99
2019-02-14T00:15:02.591Z,89.96
2019-02-14T00:20:02.988Z,89.95
2019-02-14T00:25:02.448Z,89.95
2019-02-14T00:30:02.864Z,89.98
2019-02-14T00:35:03.297Z,89.97
2019-02-14T00:40:02.708Z,89.91
2019-02-14T00:45:03.163Z,89.83
2019-02-14T00:50:02.587Z,89.84
2019-02-14T00:55:02.914Z,89.83
2019-02-14T01:00:03.284Z,89.8
2019-02-14T01:05:02.616Z,89.8
2019-02-14T01:10:03.157Z,89.79
2019-02-14T01:15:02.576Z,89.78
2019-02-14T01:20:03.031Z,89.76
2019-02-14T01:25:02.398Z,89.78
2019-02-14T01:30:02.768Z,89.87
2019-02-14T01:35:03.110Z,89.78
2019-02-14T01:40:02.507Z,89.73
2019-02-14T01:45:02.892Z,89.7
2019-02-14T01:50:03.293Z,89.68
2019-02-14T01:55:01.812Z,89.68
2019-02-14T02:00:03.153Z,89.67
2019-02-14T02:05:02.563Z,89.64
2019-02-14T02:10:03.017Z,89.64
2019-02-14T02:15:02.439Z,89.6
2019-02-14T02:20:02.876Z,89.65
2019-02-14T02:25:03.214Z,89.72
2019-02-14T02:30:02.645Z,89.69
2019-02-14T02:35:03.089Z,89.59
2019-02-14T02:40:02.510Z,89.61
2019-02-14T02:45:02.835Z,89.63
2019-02-14T02:50:03.176Z,89.63
2019-02-14T02:55:02.600Z,89.63
2019-02-14T03:00:03.041Z,89.64
2019-02-14T03:05:02.459Z,89.65
2019-02-14T03:10:02.905Z,89.69
2019-02-14T03:15:03.252Z,89.73
2019-02-14T03:20:02.662Z,89.67
2019-02-14T03:25:03.111Z,89.58
2019-02-14T03:30:02.525Z,89.58
2019-02-14T03:35:02.879Z,89.62
2019-02-14T03:40:03.309Z,89.63
2019-02-14T03:45:02.732Z,89.64
2019-02-14T03:50:03.072Z,89.63
2019-02-14T03:55:02.528Z,89.61
2019-02-14T04:00:02.941Z,89.64
2019-02-14T04:05:03.376Z,89.72
2019-02-14T04:10:02.800Z,89.66
2019-02-14T04:15:03.148Z,89.61
2019-02-14T04:20:02.555Z,89.6
2019-02-14T04:25:02.896Z,89.6
2019-02-14T04:30:02.417Z,89.64
2019-02-14T04:35:02.763Z,89.66
2019-02-14T04:40:03.225Z,89.64
2019-02-14T04:45:02.618Z,89.64
2019-02-14T04:50:02.963Z,89.71
2019-02-14T04:55:03.304Z,89.69
2019-02-14T05:00:02.716Z,89.62
2019-02-14T05:05:03.064Z,89.52
2019-02-14T05:10:02.476Z,89.55
2019-02-14T05:15:02.820Z,89.57
2019-02-14T05:20:03.164Z,89.56
2019-02-14T05:25:02.592Z,89.56
2019-02-14T05:30:03.338Z,89.56
2019-02-14T05:35:02.741Z,89.56
2019-02-14T05:40:03.201Z,89.6
2019-02-14T05:45:02.618Z,89.49
2019-02-14T05:50:02.944Z,89.4
2019-02-14T05:55:03.299Z,89.34
2019-02-14T06:00:02.704Z,89.36
2019-02-14T06:05:03.059Z,89.37
2019-02-14T06:10:02.573Z,89.35
2019-02-14T06:15:02.929Z,89.35
2019-02-14T06:20:03.361Z,89.36
2019-02-14T06:25:02.794Z,89.43
2019-02-14T06:30:03.219Z,89.41
2019-02-14T06:35:02.540Z,89.33
2019-02-14T06:40:02.999Z,89.36
2019-02-14T06:45:02.415Z,89.37
2019-02-14T06:50:02.854Z,89.37
2019-02-14T06:55:03.184Z,89.38
2019-02-14T07:00:01.792Z,89.37
2019-02-14T07:05:03.261Z,89.44
2019-02-14T07:10:02.664Z,89.5
2019-02-14T07:15:03.019Z,89.41
2019-02-14T07:20:02.431Z,89.37
2019-02-14T07:25:02.787Z,89.38
2019-02-14T07:30:03.224Z,89.41
2019-02-14T07:35:02.525Z,89.4
2019-02-14T07:40:02.976Z,89.39
2019-02-14T07:45:02.400Z,89.39
2019-02-14T07:50:02.741Z,89.44
2019-02-14T07:55:03.218Z,89.45
2019-02-14T08:00:02.590Z,89.39
2019-02-14T08:05:03.046Z,89.41
2019-02-14T08:10:02.461Z,89.43
2019-02-14T08:15:02.804Z,89.5
2019-02-14T08:20:03.155Z,89.5
2019-02-14T08:25:02.570Z,89.52
2019-02-14T08:30:03.008Z,89.54
2019-02-14T08:35:02.431Z,89.65
2019-02-14T08:40:02.828Z,89.64
2019-02-14T08:45:03.215Z,89.59
2019-02-14T08:50:02.626Z,89.58
2019-02-14T08:55:02.985Z,89.66
2019-02-14T09:00:02.389Z,89.7
2019-02-14T09:05:02.743Z,89.8
2019-02-14T09:10:03.176Z,89.87
2019-02-14T09:15:02.591Z,89.85
2019-02-14T09:20:03.034Z,89.93
2019-02-14T09:25:02.464Z,90.05
2019-02-14T09:30:03.023Z,90.02
2019-02-14T09:35:02.424Z,89.97
2019-02-14T09:40:02.873Z,89.98
2019-02-14T09:45:03.309Z,90.04
2019-02-14T09:50:02.724Z,90.08
2019-02-14T09:55:03.082Z,90.13
2019-02-14T10:00:02.515Z,90.18
2019-02-14T10:05:02.940Z,90.15
2019-02-14T10:10:02.399Z,90.07
2019-02-14T10:15:02.798Z,89.94
2019-02-14T10:20:02.432Z,89.88
2019-02-14T10:25:02.862Z,89.76
2019-02-14T10:30:03.327Z,89.69
2019-02-14T10:35:02.710Z,89.64
2019-02-14T10:40:03.164Z,89.54
2019-02-14T10:45:02.493Z,89.42
2019-02-14T10:50:02.927Z,89.39
2019-02-14T10:55:03.584Z,89.26
2019-02-14T11:00:02.993Z,89.15
2019-02-14T11:05:02.422Z,88.98
2019-02-14T11:10:02.810Z,88.88
2019-02-14T11:15:03.195Z,88.67
2019-02-14T11:20:02.617Z,88.58
2019-02-14T11:25:02.966Z,88.84
2019-02-14T11:30:02.379Z,88.88
2019-02-14T11:35:02.713Z,89.04
2019-02-14T11:40:03.164Z,89.13
2019-02-14T11:45:02.577Z,89.21
2019-02-14T11:50:03.024Z,89.24
2019-02-14T11:55:02.444Z,89.36
2019-02-14T12:00:02.786Z,89.43
2019-02-14T12:05:03.127Z,89.56
2019-02-14T12:10:02.535Z,89.59
2019-02-14T12:15:02.896Z,89.64
2019-02-14T12:20:03.232Z,89.66
2019-02-14T12:25:02.662Z,89.63
2019-02-14T12:30:03.031Z,89.7
2019-02-14T12:35:02.415Z,89.77
2019-02-14T12:40:02.893Z,89.73
2019-02-14T12:45:03.318Z,89.78
2019-02-14T12:50:02.714Z,89.79
2019-02-14T12:55:02.406Z,89.71
2019-02-14T13:00:02.772Z,89.87
2019-02-14T13:05:03.132Z,90.1
2019-02-14T13:10:02.629Z,90.13
2019-02-14T13:15:02.992Z,90.04
2019-02-14T13:20:02.334Z,90.0
2019-02-14T13:25:02.741Z,89.96
2019-02-14T13:30:03.183Z,89.96
2019-02-14T13:35:02.530Z,90.02
2019-02-14T13:40:02.977Z,90.01
2019-02-14T13:45:02.370Z,90.25
2019-02-14T13:50:02.804Z,90.41
2019-02-14T13:55:03.149Z,90.6
2019-02-14T14:00:02.563Z,90.69
2019-02-14T14:05:02.917Z,90.75
2019-02-14T14:10:02.328Z,90.76
2019-02-14T14:15:02.777Z,90.86
2019-02-14T14:20:03.216Z,91.0
2019-02-14T14:25:02.632Z,91.15
2019-02-14T14:30:02.970Z,91.21
2019-02-14T14:35:02.392Z,91.26
2019-02-14T14:40:02.832Z,91.29
2019-02-14T14:45:03.221Z,91.32
2019-02-14T14:50:02.590Z,91.35
2019-02-14T14:55:03.042Z,91.38
2019-02-14T15:00:02.366Z,91.4
2019-02-14T15:05:02.806Z,91.41
2019-02-14T15:10:03.246Z,91.43
2019-02-14T15:15:02.662Z,91.4
2019-02-14T15:20:03.006Z,91.43
2019-02-14T15:25:02.425Z,91.42
2019-02-14T15:30:01.965Z,91.41
2019-02-14T15:35:02.346Z,91.36
2019-02-14T15:40:09.407Z,91.33
2019-02-14T15:45:03.280Z,91.29
2019-02-14T15:50:04.354Z,91.27
2019-02-14T15:55:02.319Z,91.21
2019-02-14T16:00:04.767Z,91.16
2019-02-14T16:05:02.493Z,91.15
2019-02-14T16:10:05.427Z,91.16
2019-02-14T16:15:04.421Z,91.14
2019-02-14T16:20:02.601Z,91.13
2019-02-14T16:25:04.578Z,91.13
2019-02-14T16:30:04.857Z,91.16
2019-02-14T16:35:02.897Z,91.13
2019-02-14T16:40:03.347Z,91.14
2019-02-14T16:45:02.753Z,91.08
2019-02-14T16:50:03.089Z,91.06
2019-02-14T16:55:02.513Z,90.95
2019-02-14T17:00:02.858Z,90.88
2019-02-14T17:05:03.204Z,90.82
2019-02-14T17:10:02.607Z,90.78
2019-02-14T17:15:02.964Z,90.68
2019-02-14T17:20:02.377Z,90.64
2019-02-14T17:25:02.719Z,90.56
2019-02-14T17:30:03.164Z,90.53
2019-02-14T17:35:02.571Z,90.44
2019-02-14T17:40:03.017Z,90.41
2019-02-14T17:45:02.469Z,90.36
2019-02-14T17:50:02.886Z,90.3
2019-02-14T17:55:03.230Z,90.27
2019-02-14T18:00:02.640Z,89.92
2019-02-14T18:05:02.203Z,89.79
2019-02-14T18:10:02.609Z,89.8
2019-02-14T18:15:02.952Z,89.82
2019-02-14T18:20:03.395Z,89.83
2019-02-14T18:25:02.721Z,89.81
2019-02-14T18:30:03.160Z,89.8
2019-02-14T18:35:02.600Z,89.79
2019-02-14T18:40:03.191Z,89.81
2019-02-14T18:45:02.531Z,89.78
2019-02-14T18:50:02.899Z,89.76
2019-02-14T18:55:03.324Z,89.75
2019-02-14T19:00:02.739Z,89.75
2019-02-14T19:05:03.083Z,89.74
2019-02-14T19:10:02.498Z,89.71
2019-02-14T19:15:02.845Z,89.71
2019-02-14T19:20:03.289Z,89.7
2019-02-14T19:25:02.816Z,89.71
2019-02-14T19:30:03.156Z,89.67
2019-02-14T19:35:02.577Z,89.64
2019-02-14T19:40:03.005Z,89.6
2019-02-14T19:45:02.441Z,89.56
2019-02-14T19:50:02.909Z,89.54
2019-02-14T19:55:03.326Z,89.5
2019-02-14T20:00:06.917Z,89.51
2019-02-14T20:05:03.285Z,89.53
2019-02-14T20:10:02.719Z,89.55
2019-02-14T20:15:03.250Z,89.58
2019-02-14T20:20:02.703Z,89.57
2019-02-14T20:25:03.114Z,89.58
2019-02-14T20:30:02.441Z,89.56
2019-02-14T20:35:02.801Z,89.58
2019-02-14T20:40:02.508Z,89.59
2019-02-14T20:45:03.161Z,89.51
2019-02-14T20:50:02.592Z,89.49
2019-02-14T20:55:03.072Z,89.44
2019-02-14T21:00:02.558Z,89.36
2019-02-14T21:05:02.968Z,89.37
2019-02-14T21:10:02.419Z,89.35
2019-02-14T21:15:02.873Z,89.39
2019-02-14T21:20:03.272Z,89.37
2019-02-14T21:25:02.748Z,89.39
2019-02-14T21:30:03.146Z,89.38
2019-02-14T21:35:02.749Z,89.47
2019-02-14T21:40:03.317Z,89.41
2019-02-14T21:45:02.751Z,89.36
2019-02-14T21:50:03.252Z,89.37
2019-02-14T21:55:02.734Z,89.31
2019-02-14T22:00:03.217Z,89.25
2019-02-14T22:05:02.657Z,89.23
2019-02-14T22:10:03.105Z,89.23
2019-02-14T22:15:02.527Z,89.22
2019-02-14T22:20:02.963Z,89.25
2019-02-14T22:25:03.306Z,89.29
2019-02-14T22:30:02.716Z,89.33
2019-02-14T22:35:03.064Z,89.24
2019-02-14T22:40:02.477Z,89.25
2019-02-14T22:45:02.923Z,89.22
2019-02-14T22:50:03.281Z,89.19
2019-02-14T22:55:02.682Z,89.13
2019-02-14T23:00:03.130Z,89.12
2019-02-14T23:05:02.548Z,89.1
2019-02-14T23:10:02.991Z,89.11
2019-02-14T23:15:02.324Z,89.2
2019-02-14T23:20:02.747Z,89.19
2019-02-14T23:25:03.192Z,89.15
2019-02-14T23:30:02.613Z,89.16
2019-02-14T23:35:02.989Z,89.2
2019-02-14T23:40:02.470Z,89.17
2019-02-14T23:45:02.815Z,89.16
2019-02-14T23:50:03.153Z,89.18
2019-02-14T23:55:02.565Z,89.19
